sensor_id;sensor_type;location;lat;lon;timestamp;pressure;altitude;pressure_sealevel;temperature;humidity
61786;BME280;47692;53.714;11.372;2023-03-24T00:00:38;99664.31;;;8.56;100.00
61786;BME280;47692;53.714;11.372;2023-03-24T00:03:03;99662.44;;;8.61;100.00
61786;BME280;47692;53.714;11.372;2023-03-24T00:05:29;99665.97;;;8.59;100.00
61786;BME280;47692;53.714;11.372;2023-03-24T00:07:55;99666.69;;;8.64;100.00
61786;BME280;47692;53.714;11.372;2023-03-24T00:10:21;99663.25;;;8.63;100.00
61786;BME280;47692;53.714;11.372;2023-03-24T00:12:47;99662.34;;;8.64;100.00
61786;BME280;47692;53.714;11.372;2023-03-24T00:15:16;99657.94;;;8.66;100.00
61786;BME280;47692;53.714;11.372;2023-03-24T00:17:46;99663.88;;;8.71;100.00
61786;BME280;47692;53.714;11.372;2023-03-24T00:20:15;99662.03;;;8.73;100.00
61786;BME280;47692;53.714;11.372;2023-03-24T00:22:43;99656.94;;;8.70;100.00
61786;BME280;47692;53.714;11.372;2023-03-24T00:25:15;99656.00;;;8.73;100.00
61786;BME280;47692;53.714;11.372;2023-03-24T00:27:41;99656.84;;;8.73;100.00
61786;BME280;47692;53.714;11.372;2023-03-24T00:30:10;99644.84;;;8.69;100.00
61786;BME280;47692;53.714;11.372;2023-03-24T00:32:36;99632.72;;;8.68;100.00
61786;BME280;47692;53.714;11.372;2023-03-24T00:35:06;99634.31;;;8.72;100.00
61786;BME280;47692;53.714;11.372;2023-03-24T00:37:33;99626.41;;;8.76;100.00
61786;BME280;47692;53.714;11.372;2023-03-24T00:40:03;99612.53;;;8.75;100.00
61786;BME280;47692;53.714;11.372;2023-03-24T00:42:32;99615.13;;;8.75;100.00
61786;BME280;47692;53.714;11.372;2023-03-24T00:44:58;99614.19;;;8.78;100.00
61786;BME280;47692;53.714;11.372;2023-03-24T00:47:23;99601.16;;;8.78;100.00
61786;BME280;47692;53.714;11.372;2023-03-24T00:49:51;99600.28;;;8.79;100.00
61786;BME280;47692;53.714;11.372;2023-03-24T00:52:20;99597.69;;;8.79;100.00
61786;BME280;47692;53.714;11.372;2023-03-24T00:54:47;99595.34;;;8.71;100.00
61786;BME280;47692;53.714;11.372;2023-03-24T00:57:14;99592.59;;;8.76;100.00
61786;BME280;47692;53.714;11.372;2023-03-24T00:59:49;99583.00;;;8.76;100.00
61786;BME280;47692;53.714;11.372;2023-03-24T01:02:20;99585.78;;;8.71;100.00
61786;BME280;47692;53.714;11.372;2023-03-24T01:04:50;99591.19;;;8.65;100.00
61786;BME280;47692;53.714;11.372;2023-03-24T01:07:18;99582.38;;;8.69;100.00
61786;BME280;47692;53.714;11.372;2023-03-24T01:09:45;99578.88;;;8.70;100.00
61786;BME280;47692;53.714;11.372;2023-03-24T01:12:33;99576.47;;;8.64;100.00
61786;BME280;47692;53.714;11.372;2023-03-24T01:15:05;99568.69;;;8.64;100.00
61786;BME280;47692;53.714;11.372;2023-03-24T01:17:31;99567.72;;;8.67;100.00
61786;BME280;47692;53.714;11.372;2023-03-24T01:19:59;99559.97;;;8.65;100.00
61786;BME280;47692;53.714;11.372;2023-03-24T01:22:29;99552.88;;;8.70;100.00
61786;BME280;47692;53.714;11.372;2023-03-24T01:24:54;99558.91;;;8.71;100.00
61786;BME280;47692;53.714;11.372;2023-03-24T01:27:20;99540.75;;;8.69;100.00
61786;BME280;47692;53.714;11.372;2023-03-24T01:29:45;99544.03;;;8.75;100.00
61786;BME280;47692;53.714;11.372;2023-03-24T01:32:11;99544.88;;;8.75;100.00
61786;BME280;47692;53.714;11.372;2023-03-24T01:34:36;99540.41;;;8.79;100.00
61786;BME280;47692;53.714;11.372;2023-03-24T01:37:03;99527.41;;;8.79;100.00
61786;BME280;47692;53.714;11.372;2023-03-24T01:39:28;99526.50;;;8.80;100.00
61786;BME280;47692;53.714;11.372;2023-03-24T01:41:54;99530.69;;;8.84;100.00
61786;BME280;47692;53.714;11.372;2023-03-24T01:46:56;99524.72;;;8.82;100.00
61786;BME280;47692;53.714;11.372;2023-03-24T01:49:26;99514.31;;;8.82;100.00
61786;BME280;47692;53.714;11.372;2023-03-24T01:51:57;99503.91;;;8.82;100.00
61786;BME280;47692;53.714;11.372;2023-03-24T01:54:27;99502.19;;;8.81;100.00
61786;BME280;47692;53.714;11.372;2023-03-24T01:56:58;99498.69;;;8.82;100.00
61786;BME280;47692;53.714;11.372;2023-03-24T01:59:29;99497.66;;;8.86;100.00
61786;BME280;47692;53.714;11.372;2023-03-24T02:01:56;99492.59;;;8.83;100.00
61786;BME280;47692;53.714;11.372;2023-03-24T02:04:49;99484.72;;;8.84;100.00
61786;BME280;47692;53.714;11.372;2023-03-24T02:10:10;99471.78;;;8.81;100.00
61786;BME280;47692;53.714;11.372;2023-03-24T02:12:38;99470.97;;;8.81;100.00
61786;BME280;47692;53.714;11.372;2023-03-24T02:15:04;99465.06;;;8.76;100.00
61786;BME280;47692;53.714;11.372;2023-03-24T02:37:15;99425.44;;;8.67;100.00
61786;BME280;47692;53.714;11.372;2023-03-24T02:50:28;99416.81;;;8.67;100.00
61786;BME280;47692;53.714;11.372;2023-03-24T02:55:27;99403.88;;;8.65;100.00
61786;BME280;47692;53.714;11.372;2023-03-24T02:58:18;99394.22;;;8.67;100.00
61786;BME280;47692;53.714;11.372;2023-03-24T03:00:51;99394.22;;;8.67;100.00
61786;BME280;47692;53.714;11.372;2023-03-24T03:03:43;99382.09;;;8.68;100.00
61786;BME280;47692;53.714;11.372;2023-03-24T03:06:14;99378.63;;;8.67;100.00
61786;BME280;47692;53.714;11.372;2023-03-24T03:08:43;99371.69;;;8.68;100.00
61786;BME280;47692;53.714;11.372;2023-03-24T03:11:14;99360.53;;;8.64;100.00
61786;BME280;47692;53.714;11.372;2023-03-24T03:14:06;99355.25;;;8.66;100.00
61786;BME280;47692;53.714;11.372;2023-03-24T03:16:45;99350.00;;;8.67;100.00
61786;BME280;47692;53.714;11.372;2023-03-24T03:21:45;99334.50;;;8.64;100.00
61786;BME280;47692;53.714;11.372;2023-03-24T03:24:18;99328.44;;;8.64;100.00
61786;BME280;47692;53.714;11.372;2023-03-24T03:26:52;99318.91;;;8.64;100.00
61786;BME280;47692;53.714;11.372;2023-03-24T03:29:21;99321.28;;;8.70;100.00
61786;BME280;47692;53.714;11.372;2023-03-24T03:31:54;99313.56;;;8.67;100.00
61786;BME280;47692;53.714;11.372;2023-03-24T03:39:34;99297.00;;;8.70;100.00
61786;BME280;47692;53.714;11.372;2023-03-24T03:42:03;99297.72;;;8.73;100.00
61786;BME280;47692;53.714;11.372;2023-03-24T03:44:30;99297.72;;;8.73;100.00
61786;BME280;47692;53.714;11.372;2023-03-24T03:46:55;99282.13;;;8.73;100.00
61786;BME280;47692;53.714;11.372;2023-03-24T03:49:21;99287.22;;;8.77;100.00
61786;BME280;47692;53.714;11.372;2023-03-24T03:51:47;99277.66;;;8.77;100.00
61786;BME280;47692;53.714;11.372;2023-03-24T03:54:15;99274.06;;;8.80;100.00
61786;BME280;47692;53.714;11.372;2023-03-24T03:56:41;99261.06;;;8.80;100.00
61786;BME280;47692;53.714;11.372;2023-03-24T03:59:07;99266.19;;;8.81;100.00
61786;BME280;47692;53.714;11.372;2023-03-24T04:01:35;99261.06;;;8.80;100.00
61786;BME280;47692;53.714;11.372;2023-03-24T04:06:40;99238.53;;;8.79;100.00
61786;BME280;47692;53.714;11.372;2023-03-24T04:09:28;99239.44;;;8.78;100.00
61786;BME280;47692;53.714;11.372;2023-03-24T04:12:21;99243.81;;;8.77;100.00
61786;BME280;47692;53.714;11.372;2023-03-24T04:20:52;99222.81;;;8.82;100.00
61786;BME280;47692;53.714;11.372;2023-03-24T04:23:41;99220.28;;;8.80;100.00
61786;BME280;47692;53.714;11.372;2023-03-24T04:31:25;99211.50;;;8.83;100.00
61786;BME280;47692;53.714;11.372;2023-03-24T04:33:55;99204.69;;;8.80;100.00
61786;BME280;47692;53.714;11.372;2023-03-24T04:36:40;99193.41;;;8.80;100.00
61786;BME280;47692;53.714;11.372;2023-03-24T04:39:11;99191.47;;;8.85;100.00
61786;BME280;47692;53.714;11.372;2023-03-24T04:41:38;99188.81;;;8.86;100.00
61786;BME280;47692;53.714;11.372;2023-03-24T04:44:05;99192.06;;;8.92;100.00
61786;BME280;47692;53.714;11.372;2023-03-24T04:46:31;99189.50;;;8.90;100.00
61786;BME280;47692;53.714;11.372;2023-03-24T04:48:57;99182.50;;;8.92;100.00
61786;BME280;47692;53.714;11.372;2023-03-24T04:51:23;99178.19;;;8.91;100.00
61786;BME280;47692;53.714;11.372;2023-03-24T04:53:49;99178.16;;;8.93;100.00
61786;BME280;47692;53.714;11.372;2023-03-24T04:58:49;99167.69;;;8.94;100.00
61786;BME280;47692;53.714;11.372;2023-03-24T05:01:15;99168.44;;;8.96;100.00
61786;BME280;47692;53.714;11.372;2023-03-24T05:03:41;99155.31;;;8.99;100.00
61786;BME280;47692;53.714;11.372;2023-03-24T05:06:10;99153.63;;;8.98;100.00
61786;BME280;47692;53.714;11.372;2023-03-24T05:08:37;99145.81;;;8.98;100.00
61786;BME280;47692;53.714;11.372;2023-03-24T05:11:02;99147.38;;;9.02;100.00
61786;BME280;47692;53.714;11.372;2023-03-24T05:13:28;99138.78;;;9.00;100.00
61786;BME280;47692;53.714;11.372;2023-03-24T05:15:53;99137.94;;;9.00;100.00
61786;BME280;47692;53.714;11.372;2023-03-24T05:18:19;99138.78;;;9.00;100.00
61786;BME280;47692;53.714;11.372;2023-03-24T05:20:44;99135.41;;;8.98;100.00
61786;BME280;47692;53.714;11.372;2023-03-24T05:23:10;99130.91;;;9.02;100.00
61786;BME280;47692;53.714;11.372;2023-03-24T05:25:35;99137.09;;;8.99;100.00
61786;BME280;47692;53.714;11.372;2023-03-24T05:28:00;99130.25;;;8.97;100.00
61786;BME280;47692;53.714;11.372;2023-03-24T05:30:26;99130.34;;;8.95;100.00
61786;BME280;47692;53.714;11.372;2023-03-24T05:32:51;99122.47;;;8.97;100.00
61786;BME280;47692;53.714;11.372;2023-03-24T05:35:17;99128.25;;;9.03;100.00
61786;BME280;47692;53.714;11.372;2023-03-24T05:37:42;99124.09;;;8.99;100.00
61786;BME280;47692;53.714;11.372;2023-03-24T05:40:08;99117.97;;;9.00;100.00
61786;BME280;47692;53.714;11.372;2023-03-24T05:42:34;99114.31;;;9.04;100.00
61786;BME280;47692;53.714;11.372;2023-03-24T05:44:59;99107.41;;;9.03;100.00
61786;BME280;47692;53.714;11.372;2023-03-24T05:47:24;99114.19;;;9.08;100.00
61786;BME280;47692;53.714;11.372;2023-03-24T05:49:51;99105.34;;;9.12;100.00
61786;BME280;47692;53.714;11.372;2023-03-24T05:52:16;99113.94;;;9.14;100.00
61786;BME280;47692;53.714;11.372;2023-03-24T05:54:44;99105.19;;;9.15;100.00
61786;BME280;47692;53.714;11.372;2023-03-24T05:57:12;99106.78;;;9.19;100.00
61786;BME280;47692;53.714;11.372;2023-03-24T05:59:38;99111.09;;;9.20;100.00
61786;BME280;47692;53.714;11.372;2023-03-24T06:02:04;99105.09;;;9.18;100.00
61786;BME280;47692;53.714;11.372;2023-03-24T06:04:29;99091.81;;;9.24;100.00
61786;BME280;47692;53.714;11.372;2023-03-24T06:06:58;99089.69;;;9.32;100.00
61786;BME280;47692;53.714;11.372;2023-03-24T06:09:30;99077.38;;;9.36;100.00
61786;BME280;47692;53.714;11.372;2023-03-24T06:12:03;99074.84;;;9.34;100.00
61786;BME280;47692;53.714;11.372;2023-03-24T06:14:28;99082.41;;;9.41;100.00
61786;BME280;47692;53.714;11.372;2023-03-24T06:16:54;99077.19;;;9.41;100.00
61786;BME280;47692;53.714;11.372;2023-03-24T06:19:26;99079.88;;;9.39;100.00
61786;BME280;47692;53.714;11.372;2023-03-24T06:21:55;99083.19;;;9.43;100.00
61786;BME280;47692;53.714;11.372;2023-03-24T06:24:25;99078.72;;;9.45;100.00
61786;BME280;47692;53.714;11.372;2023-03-24T06:26:51;99079.59;;;9.45;100.00
61786;BME280;47692;53.714;11.372;2023-03-24T06:29:16;99077.69;;;9.49;100.00
61786;BME280;47692;53.714;11.372;2023-03-24T06:31:43;99076.78;;;9.50;100.00
61786;BME280;47692;53.714;11.372;2023-03-24T06:34:09;99081.94;;;9.51;100.00
61786;BME280;47692;53.714;11.372;2023-03-24T06:36:34;99076.56;;;9.54;100.00
61786;BME280;47692;53.714;11.372;2023-03-24T06:39:00;99073.06;;;9.56;100.00
61786;BME280;47692;53.714;11.372;2023-03-24T06:41:26;99072.97;;;9.57;100.00
61786;BME280;47692;53.714;11.372;2023-03-24T06:43:52;99060.94;;;9.54;100.00
61786;BME280;47692;53.714;11.372;2023-03-24T06:46:17;99065.03;;;9.60;100.00
61786;BME280;47692;53.714;11.372;2023-03-24T06:48:43;99054.63;;;9.60;100.00
61786;BME280;47692;53.714;11.372;2023-03-24T06:51:08;99052.78;;;9.62;100.00
61786;BME280;47692;53.714;11.372;2023-03-24T06:53:33;99058.69;;;9.66;100.00
61786;BME280;47692;53.714;11.372;2023-03-24T06:55:59;99063.84;;;9.67;100.00
61786;BME280;47692;53.714;11.372;2023-03-24T06:58:25;99054.19;;;9.69;100.00
61786;BME280;47692;53.714;11.372;2023-03-24T07:00:50;99052.50;;;9.68;100.00
61786;BME280;47692;53.714;11.372;2023-03-24T07:03:16;99052.50;;;9.68;100.00
61786;BME280;47692;53.714;11.372;2023-03-24T07:05:43;99059.28;;;9.73;100.00
61786;BME280;47692;53.714;11.372;2023-03-24T07:08:10;99066.31;;;9.70;100.00
61786;BME280;47692;53.714;11.372;2023-03-24T07:10:39;99057.28;;;9.78;100.00
61786;BME280;47692;53.714;11.372;2023-03-24T07:13:06;99057.28;;;9.78;100.00
61786;BME280;47692;53.714;11.372;2023-03-24T07:15:32;99060.72;;;9.78;100.00
61786;BME280;47692;53.714;11.372;2023-03-24T07:17:57;99065.91;;;9.80;100.00
61786;BME280;47692;53.714;11.372;2023-03-24T07:20:23;99067.44;;;9.84;100.00
61786;BME280;47692;53.714;11.372;2023-03-24T07:22:48;99072.66;;;9.84;100.00
61786;BME280;47692;53.714;11.372;2023-03-24T07:25:14;99062.22;;;9.84;100.00
61786;BME280;47692;53.714;11.372;2023-03-24T07:27:44;99057.13;;;9.81;100.00
61786;BME280;47692;53.714;11.372;2023-03-24T07:30:11;99065.19;;;9.76;100.00
61786;BME280;47692;53.714;11.372;2023-03-24T07:32:36;99071.22;;;9.77;100.00
61786;BME280;47692;53.714;11.372;2023-03-24T07:35:08;99062.50;;;9.78;100.00
61786;BME280;47692;53.714;11.372;2023-03-24T07:37:35;99070.16;;;9.81;100.00
61786;BME280;47692;53.714;11.372;2023-03-24T07:40:02;99060.53;;;9.83;100.00
61786;BME280;47692;53.714;11.372;2023-03-24T07:42:31;99054.31;;;9.85;100.00
61786;BME280;47692;53.714;11.372;2023-03-24T07:44:56;99050.44;;;9.94;100.00
61786;BME280;47692;53.714;11.372;2023-03-24T07:47:22;99072.00;;;9.98;100.00
61786;BME280;47692;53.714;11.372;2023-03-24T07:49:47;99074.41;;;10.02;100.00
61786;BME280;47692;53.714;11.372;2023-03-24T07:52:12;99089.13;;;10.03;100.00
61786;BME280;47692;53.714;11.372;2023-03-24T07:54:38;99075.03;;;10.08;100.00
61786;BME280;47692;53.714;11.372;2023-03-24T07:57:03;99080.94;;;10.11;100.00
61786;BME280;47692;53.714;11.372;2023-03-24T07:59:28;99074.75;;;10.14;100.00
61786;BME280;47692;53.714;11.372;2023-03-24T08:01:54;99080.59;;;10.19;100.00
61786;BME280;47692;53.714;11.372;2023-03-24T08:04:20;99073.53;;;10.21;100.00
61786;BME280;47692;53.714;11.372;2023-03-24T08:06:45;99079.59;;;10.22;100.00
61786;BME280;47692;53.714;11.372;2023-03-24T08:09:12;99085.38;;;10.28;100.00
61786;BME280;47692;53.714;11.372;2023-03-24T08:11:38;99082.59;;;10.31;100.00
61786;BME280;47692;53.714;11.372;2023-03-24T08:14:04;99082.34;;;10.38;100.00
61786;BME280;47692;53.714;11.372;2023-03-24T08:16:29;99079.53;;;10.42;100.00
61786;BME280;47692;53.714;11.372;2023-03-24T08:18:55;99080.06;;;10.49;100.00
61786;BME280;47692;53.714;11.372;2023-03-24T08:21:24;99091.19;;;10.53;100.00
61786;BME280;47692;53.714;11.372;2023-03-24T08:23:49;99105.72;;;10.58;100.00
61786;BME280;47692;53.714;11.372;2023-03-24T08:26:15;99095.97;;;10.62;100.00
61786;BME280;47692;53.714;11.372;2023-03-24T08:28:40;99091.47;;;10.65;100.00
61786;BME280;47692;53.714;11.372;2023-03-24T08:31:06;99101.19;;;10.62;100.00
61786;BME280;47692;53.714;11.372;2023-03-24T08:33:32;99106.34;;;10.63;100.00
61786;BME280;47692;53.714;11.372;2023-03-24T08:35:57;99123.75;;;10.63;100.00
61786;BME280;47692;53.714;11.372;2023-03-24T08:38:25;99125.53;;;10.62;100.00
61786;BME280;47692;53.714;11.372;2023-03-24T08:40:58;99134.34;;;10.60;100.00
61786;BME280;47692;53.714;11.372;2023-03-24T08:43:29;99131.53;;;10.64;100.00
61786;BME280;47692;53.714;11.372;2023-03-24T08:45:56;99141.06;;;10.65;100.00
61786;BME280;47692;53.714;11.372;2023-03-24T08:48:22;99149.19;;;10.77;100.00
61786;BME280;47692;53.714;11.372;2023-03-24T08:50:48;99147.28;;;10.80;100.00
61786;BME280;47692;53.714;11.372;2023-03-24T08:53:13;99158.25;;;10.87;100.00
61786;BME280;47692;53.714;11.372;2023-03-24T08:55:40;99164.66;;;10.99;100.00
61786;BME280;47692;53.714;11.372;2023-03-24T08:58:11;99163.50;;;11.05;100.00
61786;BME280;47692;53.714;11.372;2023-03-24T09:00:37;99166.72;;;11.10;100.00
61786;BME280;47692;53.714;11.372;2023-03-24T09:03:02;99169.34;;;11.10;100.00
61786;BME280;47692;53.714;11.372;2023-03-24T09:05:30;99171.03;;;11.11;100.00
61786;BME280;47692;53.714;11.372;2023-03-24T09:07:56;99180.88;;;11.23;100.00
61786;BME280;47692;53.714;11.372;2023-03-24T09:10:22;99183.94;;;11.31;100.00
61786;BME280;47692;53.714;11.372;2023-03-24T09:12:48;99185.47;;;11.36;100.00
61786;BME280;47692;53.714;11.372;2023-03-24T09:15:13;99185.47;;;11.36;100.00
61786;BME280;47692;53.714;11.372;2023-03-24T09:17:39;99189.19;;;11.31;100.00
61786;BME280;47692;53.714;11.372;2023-03-24T09:20:07;99190.19;;;11.29;98.71
61786;BME280;47692;53.714;11.372;2023-03-24T09:22:37;99194.72;;;11.25;97.05
61786;BME280;47692;53.714;11.372;2023-03-24T09:25:03;99196.25;;;11.29;96.77
61786;BME280;47692;53.714;11.372;2023-03-24T09:27:28;99206.69;;;11.29;97.36
61786;BME280;47692;53.714;11.372;2023-03-24T09:29:53;99207.06;;;11.39;97.93
61786;BME280;47692;53.714;11.372;2023-03-24T09:32:20;99210.22;;;11.46;97.75
61786;BME280;47692;53.714;11.372;2023-03-24T09:34:45;99214.69;;;11.44;98.49
61786;BME280;47692;53.714;11.372;2023-03-24T09:37:10;99226.91;;;11.43;98.79
61786;BME280;47692;53.714;11.372;2023-03-24T09:39:36;99238.03;;;11.29;96.82
61786;BME280;47692;53.714;11.372;2023-03-24T09:42:04;99257.94;;;11.32;96.80
61786;BME280;47692;53.714;11.372;2023-03-24T09:44:39;99263.34;;;11.46;97.40
61786;BME280;47692;53.714;11.372;2023-03-24T09:47:24;99240.81;;;11.61;94.70
61786;BME280;47692;53.714;11.372;2023-03-24T09:49:51;99257.69;;;11.89;93.93
61786;BME280;47692;53.714;11.372;2023-03-24T09:52:26;99258.25;;;12.14;90.64
61786;BME280;47692;53.714;11.372;2023-03-24T09:54:56;99266.00;;;12.15;87.96
61786;BME280;47692;53.714;11.372;2023-03-24T09:57:39;99269.56;;;11.96;85.70
61786;BME280;47692;53.714;11.372;2023-03-24T10:02:41;99276.41;;;11.64;84.94
61786;BME280;47692;53.714;11.372;2023-03-24T10:07:56;99273.94;;;11.78;85.87
61786;BME280;47692;53.714;11.372;2023-03-24T10:10:32;99281.84;;;11.77;85.57
61786;BME280;47692;53.714;11.372;2023-03-24T10:13:06;99289.88;;;11.56;85.16
61786;BME280;47692;53.714;11.372;2023-03-24T10:15:35;99294.53;;;11.50;86.04
61786;BME280;47692;53.714;11.372;2023-03-24T10:26:01;99296.78;;;12.10;81.93
61786;BME280;47692;53.714;11.372;2023-03-24T10:28:48;99303.41;;;12.00;81.77
61786;BME280;47692;53.714;11.372;2023-03-24T10:31:15;99301.25;;;11.90;81.69
61786;BME280;47692;53.714;11.372;2023-03-24T10:33:44;99303.94;;;11.89;81.35
61786;BME280;47692;53.714;11.372;2023-03-24T10:36:10;99312.63;;;11.89;82.61
61786;BME280;47692;53.714;11.372;2023-03-24T10:38:38;99304.94;;;12.21;83.28
61786;BME280;47692;53.714;11.372;2023-03-24T10:41:03;99319.06;;;12.35;82.31
61786;BME280;47692;53.714;11.372;2023-03-24T10:43:29;99318.47;;;12.30;81.20
61786;BME280;47692;53.714;11.372;2023-03-24T10:45:56;99311.06;;;12.20;81.57
61786;BME280;47692;53.714;11.372;2023-03-24T10:48:42;99312.69;;;12.23;82.43
61786;BME280;47692;53.714;11.372;2023-03-24T10:51:21;99323.66;;;12.14;82.83
61786;BME280;47692;53.714;11.372;2023-03-24T10:53:47;99323.56;;;11.98;81.48
61786;BME280;47692;53.714;11.372;2023-03-24T10:56:39;99320.31;;;11.92;83.01
61786;BME280;47692;53.714;11.372;2023-03-24T11:01:42;99338.16;;;11.84;83.13
61786;BME280;47692;53.714;11.372;2023-03-24T11:04:12;99344.31;;;11.83;84.02
61786;BME280;47692;53.714;11.372;2023-03-24T11:06:53;99338.97;;;11.67;83.81
61786;BME280;47692;53.714;11.372;2023-03-24T11:09:21;99346.44;;;11.57;83.08
61786;BME280;47692;53.714;11.372;2023-03-24T11:11:47;99342.47;;;11.68;83.66
61786;BME280;47692;53.714;11.372;2023-03-24T11:14:24;99335.72;;;11.81;83.62
61786;BME280;47692;53.714;11.372;2023-03-24T11:16:51;99340.00;;;11.82;80.14
61786;BME280;47692;53.714;11.372;2023-03-24T11:19:22;99345.53;;;11.76;79.82
61786;BME280;47692;53.714;11.372;2023-03-24T11:21:50;99363.06;;;11.74;80.04
61786;BME280;47692;53.714;11.372;2023-03-24T11:24:18;99371.63;;;11.77;80.39
61786;BME280;47692;53.714;11.372;2023-03-24T11:26:55;99373.38;;;11.77;79.99
61786;BME280;47692;53.714;11.372;2023-03-24T11:29:25;99366.44;;;11.76;80.36
61786;BME280;47692;53.714;11.372;2023-03-24T11:31:56;99374.06;;;11.80;80.65
61786;BME280;47692;53.714;11.372;2023-03-24T11:34:27;99367.13;;;11.79;79.51
61786;BME280;47692;53.714;11.372;2023-03-24T11:37:00;99377.19;;;11.70;79.44
61786;BME280;47692;53.714;11.372;2023-03-24T11:39:29;99388.31;;;11.75;80.79
61786;BME280;47692;53.714;11.372;2023-03-24T11:42:00;99392.00;;;11.88;80.78
61786;BME280;47692;53.714;11.372;2023-03-24T11:44:48;99401.25;;;12.13;81.70
61786;BME280;47692;53.714;11.372;2023-03-24T11:47:32;99399.56;;;12.12;79.18
61786;BME280;47692;53.714;11.372;2023-03-24T11:55:17;99394.03;;;12.18;77.59
61786;BME280;47692;53.714;11.372;2023-03-24T11:58:02;99387.56;;;12.25;76.33
61786;BME280;47692;53.714;11.372;2023-03-24T12:00:50;99391.00;;;12.61;76.04
61786;BME280;47692;53.714;11.372;2023-03-24T12:06:41;99376.78;;;13.31;73.87
61786;BME280;47692;53.714;11.372;2023-03-24T12:14:46;99384.81;;;12.96;72.81
61786;BME280;47692;53.714;11.372;2023-03-24T12:17:22;99384.22;;;12.90;72.70
61786;BME280;47692;53.714;11.372;2023-03-24T12:26:01;99383.09;;;12.95;72.50
61786;BME280;47692;53.714;11.372;2023-03-24T12:28:44;99392.00;;;13.08;71.13
61786;BME280;47692;53.714;11.372;2023-03-24T12:34:39;99397.59;;;13.66;66.74
61786;BME280;47692;53.714;11.372;2023-03-24T12:40:33;99377.09;;;14.03;64.83
61786;BME280;47692;53.714;11.372;2023-03-24T12:45:54;99367.59;;;14.16;62.31
61786;BME280;47692;53.714;11.372;2023-03-24T12:56:20;99365.00;;;13.70;65.27
61786;BME280;47692;53.714;11.372;2023-03-24T12:58:51;99370.19;;;13.71;65.57
61786;BME280;47692;53.714;11.372;2023-03-24T13:01:29;99378.41;;;13.65;65.60
61786;BME280;47692;53.714;11.372;2023-03-24T13:06:35;99373.97;;;14.27;64.52
61786;BME280;47692;53.714;11.372;2023-03-24T13:11:46;99388.16;;;14.38;64.05
61786;BME280;47692;53.714;11.372;2023-03-24T13:14:22;99384.69;;;14.52;63.75
61786;BME280;47692;53.714;11.372;2023-03-24T13:16:49;99369.75;;;14.53;64.02
61786;BME280;47692;53.714;11.372;2023-03-24T13:19:19;99375.50;;;14.60;63.79
61786;BME280;47692;53.714;11.372;2023-03-24T13:21:48;99387.91;;;14.86;65.03
61786;BME280;47692;53.714;11.372;2023-03-24T13:24:16;99385.75;;;14.79;62.76
61786;BME280;47692;53.714;11.372;2023-03-24T13:32:16;99372.88;;;15.03;61.35
61786;BME280;47692;53.714;11.372;2023-03-24T13:37:45;99381.09;;;14.69;60.62
61786;BME280;47692;53.714;11.372;2023-03-24T13:40:23;99376.25;;;14.62;60.66
61786;BME280;47692;53.714;11.372;2023-03-24T13:42:54;99379.06;;;14.59;60.97
61786;BME280;47692;53.714;11.372;2023-03-24T13:50:53;99364.09;;;14.75;59.92
61786;BME280;47692;53.714;11.372;2023-03-24T13:53:29;99373.81;;;14.88;60.85
61786;BME280;47692;53.714;11.372;2023-03-24T13:55:55;99377.00;;;14.93;60.17
61786;BME280;47692;53.714;11.372;2023-03-24T13:58:23;99374.66;;;14.88;60.61
61786;BME280;47692;53.714;11.372;2023-03-24T14:03:45;99389.59;;;14.73;60.79
61786;BME280;47692;53.714;11.372;2023-03-24T14:09:30;99393.44;;;14.67;59.39
61786;BME280;47692;53.714;11.372;2023-03-24T14:14:29;99382.09;;;14.08;59.66
61786;BME280;47692;53.714;11.372;2023-03-24T14:19:35;99386.75;;;14.47;61.56
61786;BME280;47692;53.714;11.372;2023-03-24T14:22:20;99388.00;;;14.85;60.54
61786;BME280;47692;53.714;11.372;2023-03-24T14:24:57;99389.09;;;15.24;60.69
61786;BME280;47692;53.714;11.372;2023-03-24T14:27:38;99386.53;;;15.23;58.42
61786;BME280;47692;53.714;11.372;2023-03-24T14:32:58;99389.59;;;14.88;58.77
61786;BME280;47692;53.714;11.372;2023-03-24T14:35:38;99392.66;;;15.09;58.33
61786;BME280;47692;53.714;11.372;2023-03-24T14:38:21;99382.59;;;15.15;57.67
61786;BME280;47692;53.714;11.372;2023-03-24T14:40:49;99376.41;;;15.16;57.99
61786;BME280;47692;53.714;11.372;2023-03-24T14:49:21;99381.50;;;15.05;55.45
61786;BME280;47692;53.714;11.372;2023-03-24T14:52:15;99386.75;;;15.05;55.22
61786;BME280;47692;53.714;11.372;2023-03-24T14:54:56;99387.69;;;15.04;55.57
61786;BME280;47692;53.714;11.372;2023-03-24T14:57:27;99389.38;;;15.19;56.30
61786;BME280;47692;53.714;11.372;2023-03-24T15:07:42;99383.59;;;14.71;54.66
61786;BME280;47692;53.714;11.372;2023-03-24T15:10:16;99383.97;;;14.65;54.44
61786;BME280;47692;53.714;11.372;2023-03-24T15:12:45;99376.81;;;14.67;54.05
61786;BME280;47692;53.714;11.372;2023-03-24T15:15:16;99391.44;;;14.57;53.61
61786;BME280;47692;53.714;11.372;2023-03-24T15:17:43;99398.47;;;14.56;53.50
61786;BME280;47692;53.714;11.372;2023-03-24T15:22:44;99403.91;;;14.38;55.58
61786;BME280;47692;53.714;11.372;2023-03-24T15:25:10;99402.63;;;14.15;54.98
61786;BME280;47692;53.714;11.372;2023-03-24T15:27:36;99412.47;;;14.12;55.55
61786;BME280;47692;53.714;11.372;2023-03-24T15:30:12;99403.22;;;13.90;55.59
61786;BME280;47692;53.714;11.372;2023-03-24T15:32:37;99412.50;;;13.96;56.57
61786;BME280;47692;53.714;11.372;2023-03-24T15:35:05;99417.09;;;13.76;56.42
61786;BME280;47692;53.714;11.372;2023-03-24T15:37:38;99415.44;;;13.75;56.37
61786;BME280;47692;53.714;11.372;2023-03-24T15:43:00;99405.38;;;13.51;56.27
61786;BME280;47692;53.714;11.372;2023-03-24T15:48:03;99422.72;;;13.38;57.10
61786;BME280;47692;53.714;11.372;2023-03-24T15:50:40;99418.53;;;13.34;57.54